Time,TemperatureF,DewpointF,PressureIn,WindDirection,WindDirectionDegrees,WindSpeedMPH,WindSpeedGustMPH,Humidity,HourlyPrecipIn,Conditions,Clouds,dailyrainin,SolarRadiationWatts/m^2,SoftwareType,DateUTC
2013-06-27 00:01:00,62.0,54.0,-100.00,NE,37,4.0,11.0,75,0.00,,,0.13,0.000000,,2013-06-27 06:01:00,
2013-06-27 00:12:00,62.0,54.0,-100.00,NE,37,4.0,11.0,75,0.00,,,0.13,0.000000,,2013-06-27 06:12:00,
2013-06-27 00:22:00,62.0,54.0,-100.00,NE,37,4.0,11.0,75,0.00,,,0.13,0.000000,,2013-06-27 06:22:00,
2013-06-27 00:34:00,62.0,54.0,-100.00,NE,37,4.0,11.0,75,0.00,,,0.13,0.000000,,2013-06-27 06:34:00,
2013-06-27 00:42:00,60.0,54.0,-100.00,ENE,74,3.0,11.0,82,0.00,,,0.13,0.000000,,2013-06-27 06:42:00,
2013-06-27 01:12:00,60.0,54.0,-100.00,ENE,74,3.0,11.0,82,0.00,,,0.13,0.000000,,2013-06-27 07:12:00,
2013-06-27 01:22:00,60.0,54.0,-100.00,ENE,74,3.0,11.0,82,0.00,,,0.13,0.000000,,2013-06-27 07:22:00,
2013-06-27 01:33:00,60.0,54.0,-100.00,ENE,74,3.0,11.0,82,0.00,,,0.13,0.000000,,2013-06-27 07:33:00,
2013-06-27 01:42:00,59.0,53.0,-100.00,ENE,70,7.0,16.0,81,0.00,,,0.13,0.000000,,2013-06-27 07:42:00,
2013-06-27 02:11:00,59.0,53.0,-100.00,ENE,70,7.0,16.0,81,0.00,,,0.13,0.000000,,2013-06-27 08:11:00,
2013-06-27 02:22:00,59.0,53.0,-100.00,ENE,70,7.0,16.0,81,0.00,,,0.13,0.000000,,2013-06-27 08:22:00,
2013-06-27 02:34:00,59.0,53.0,-100.00,ENE,70,7.0,16.0,81,0.00,,,0.13,0.000000,,2013-06-27 08:34:00,
2013-06-27 02:42:00,58.0,53.0,-100.00,ENE,60,5.0,15.0,82,0.00,,,0.13,0.000000,,2013-06-27 08:42:00,
2013-06-27 03:11:00,58.0,53.0,-100.00,ENE,60,5.0,15.0,82,0.00,,,0.13,0.000000,,2013-06-27 09:11:00,
2013-06-27 03:22:00,58.0,53.0,-100.00,ENE,60,5.0,15.0,82,0.00,,,0.13,0.000000,,2013-06-27 09:22:00,
2013-06-27 03:33:00,58.0,53.0,-100.00,ENE,60,5.0,15.0,82,0.00,,,0.13,0.000000,,2013-06-27 09:33:00,
2013-06-27 03:42:00,57.0,53.0,-100.00,NNE,24,5.0,16.0,87,0.00,,,0.12,0.000000,,2013-06-27 09:42:00,
2013-06-27 04:01:00,57.0,53.0,-100.00,NNE,24,5.0,16.0,87,0.00,,,0.12,0.000000,,2013-06-27 10:01:00,
2013-06-27 04:11:00,57.0,53.0,-100.00,NNE,24,5.0,16.0,87,0.00,,,0.12,0.000000,,2013-06-27 10:11:00,
2013-06-27 04:22:00,57.0,53.0,-100.00,NNE,24,5.0,16.0,87,0.00,,,0.12,0.000000,,2013-06-27 10:22:00,
2013-06-27 04:32:00,57.0,53.0,-100.00,NNE,24,5.0,16.0,87,0.00,,,0.12,0.000000,,2013-06-27 10:32:00,
2013-06-27 04:42:00,56.0,52.0,-100.00,North,8,2.0,13.0,87,0.00,,,-99.99,0.000000,,2013-06-27 10:42:00,
2013-06-27 05:01:00,56.0,52.0,-100.00,North,8,2.0,13.0,87,0.00,,,-99.99,0.000000,,2013-06-27 11:01:00,
2013-06-27 05:11:00,56.0,52.0,-100.00,North,8,2.0,13.0,87,0.00,,,-99.99,0.000000,,2013-06-27 11:11:00,
2013-06-27 05:21:00,56.0,52.0,-100.00,North,8,2.0,13.0,87,0.00,,,-99.99,0.000000,,2013-06-27 11:21:00,
2013-06-27 05:33:00,56.0,52.0,-100.00,North,8,2.0,13.0,87,0.00,,,-99.99,0.000000,,2013-06-27 11:33:00,
2013-06-27 05:42:00,56.0,52.0,-100.00,NNE,15,4.0,11.0,88,0.00,,,0.03,0.000000,,2013-06-27 11:42:00,
2013-06-27 06:11:00,56.0,52.0,-100.00,NNE,15,4.0,11.0,88,0.00,,,0.03,0.000000,,2013-06-27 12:11:00,
2013-06-27 06:22:00,56.0,52.0,-100.00,NNE,15,4.0,11.0,88,0.00,,,0.03,0.000000,,2013-06-27 12:22:00,
2013-06-27 06:34:00,56.0,52.0,-100.00,NNE,15,4.0,11.0,88,0.00,,,0.03,0.000000,,2013-06-27 12:34:00,
2013-06-27 06:42:00,56.0,52.0,-100.00,NNE,18,6.0,13.0,87,0.00,,,0.03,7.000000,,2013-06-27 12:42:00,
2013-06-27 07:11:00,56.0,52.0,-100.00,NNE,18,6.0,13.0,87,0.00,,,0.03,7.000000,,2013-06-27 13:11:00,
2013-06-27 07:22:00,56.0,52.0,-100.00,NNE,18,6.0,13.0,87,0.00,,,0.03,7.000000,,2013-06-27 13:22:00,
2013-06-27 07:33:00,56.0,52.0,-100.00,NNE,18,6.0,13.0,87,0.00,,,0.03,7.000000,,2013-06-27 13:33:00,
2013-06-27 07:42:00,59.0,53.0,-100.00,North,11,6.0,11.0,80,0.00,,,0.03,96.000000,,2013-06-27 13:42:00,
2013-06-27 08:11:00,59.0,53.0,-100.00,North,11,6.0,11.0,80,0.00,,,0.03,96.000000,,2013-06-27 14:11:00,
2013-06-27 08:22:00,59.0,53.0,-100.00,North,11,6.0,11.0,80,0.00,,,0.03,96.000000,,2013-06-27 14:22:00,
2013-06-27 08:33:00,59.0,53.0,-100.00,North,11,6.0,11.0,80,0.00,,,0.03,96.000000,,2013-06-27 14:33:00,
2013-06-27 08:42:00,64.0,54.0,-100.00,NNE,29,4.0,10.0,70,0.00,,,0.03,269.000000,,2013-06-27 14:42:00,
2013-06-27 09:11:00,64.0,54.0,-100.00,NNE,29,4.0,10.0,70,0.00,,,0.03,269.000000,,2013-06-27 15:11:00,
2013-06-27 09:22:00,64.0,54.0,-100.00,NNE,29,4.0,10.0,70,0.00,,,0.03,269.000000,,2013-06-27 15:22:00,
2013-06-27 09:33:00,64.0,54.0,-100.00,NNE,29,4.0,10.0,70,0.00,,,0.03,269.000000,,2013-06-27 15:33:00,
2013-06-27 09:42:00,69.0,55.0,-100.00,ENE,71,6.0,10.0,62,0.00,,,0.03,443.000000,,2013-06-27 15:42:00,
2013-06-27 10:11:00,69.0,55.0,-100.00,ENE,71,6.0,10.0,62,0.00,,,0.03,443.000000,,2013-06-27 16:11:00,
2013-06-27 10:23:00,69.0,55.0,-100.00,ENE,71,6.0,10.0,62,0.00,,,0.03,443.000000,,2013-06-27 16:23:00,
2013-06-27 10:33:00,69.0,55.0,-100.00,ENE,71,6.0,10.0,62,0.00,,,0.03,443.000000,,2013-06-27 16:33:00,
2013-06-27 10:42:00,74.0,52.0,-100.00,SE,135,5.0,10.0,47,0.00,,,0.03,607.000000,,2013-06-27 16:42:00,
2013-06-27 11:11:00,74.0,52.0,-100.00,SE,135,5.0,10.0,47,0.00,,,0.03,607.000000,,2013-06-27 17:11:00,
2013-06-27 11:22:00,74.0,52.0,-100.00,SE,135,5.0,10.0,47,0.00,,,0.03,607.000000,,2013-06-27 17:22:00,
2013-06-27 11:33:00,74.0,52.0,-100.00,SE,135,5.0,10.0,47,0.00,,,0.03,607.000000,,2013-06-27 17:33:00,
2013-06-27 11:42:00,77.0,53.0,-100.00,SSE,154,6.0,11.0,43,0.00,,,0.02,752.000000,,2013-06-27 17:42:00,
2013-06-27 12:11:00,77.0,53.0,-100.00,SSE,154,6.0,11.0,43,0.00,,,0.02,752.000000,,2013-06-27 18:11:00,
2013-06-27 12:22:00,77.0,53.0,-100.00,SSE,154,6.0,11.0,43,0.00,,,0.02,752.000000,,2013-06-27 18:22:00,
2013-06-27 12:32:00,77.0,53.0,-100.00,SSE,154,6.0,11.0,43,0.00,,,0.02,752.000000,,2013-06-27 18:32:00,
2013-06-27 12:42:00,79.0,51.0,-100.00,South,189,6.0,11.0,38,0.00,,,0.01,865.000000,,2013-06-27 18:42:00,
2013-06-27 13:33:00,79.0,51.0,-100.00,South,189,6.0,11.0,38,0.00,,,0.01,865.000000,,2013-06-27 19:33:00,
2013-06-27 13:42:00,81.0,52.0,-100.00,South,171,8.0,15.0,36,0.00,,,-99.99,925.000000,,2013-06-27 19:42:00,
2013-06-27 14:11:00,81.0,52.0,-100.00,South,171,8.0,15.0,36,0.00,,,-99.99,925.000000,,2013-06-27 20:11:00,
2013-06-27 14:22:00,81.0,52.0,-100.00,South,171,8.0,15.0,36,0.00,,,-99.99,925.000000,,2013-06-27 20:22:00,
2013-06-27 14:35:00,81.0,52.0,-100.00,South,171,8.0,15.0,36,0.00,,,-99.99,925.000000,,2013-06-27 20:35:00,
2013-06-27 14:42:00,83.0,52.0,-100.00,South,184,6.0,16.0,34,0.00,,,0.00,945.000000,,2013-06-27 20:42:00,
2013-06-27 15:13:00,83.0,52.0,-100.00,South,184,6.0,16.0,34,0.00,,,0.00,945.000000,,2013-06-27 21:13:00,
2013-06-27 15:24:00,83.0,52.0,-100.00,South,184,6.0,16.0,34,0.00,,,0.00,945.000000,,2013-06-27 21:24:00,
2013-06-27 15:34:00,83.0,52.0,-100.00,South,184,6.0,16.0,34,0.00,,,0.00,945.000000,,2013-06-27 21:34:00,
2013-06-27 16:13:00,84.0,46.0,-100.00,SSW,213,7.0,16.0,27,0.00,,,0.00,916.000000,,2013-06-27 22:13:00,
2013-06-27 16:22:00,84.0,46.0,-100.00,SSW,213,7.0,16.0,27,0.00,,,0.00,916.000000,,2013-06-27 22:22:00,
2013-06-27 16:33:00,84.0,46.0,-100.00,SSW,213,7.0,16.0,27,0.00,,,0.00,916.000000,,2013-06-27 22:33:00,
2013-06-27 16:42:00,85.0,51.0,-100.00,South,188,7.0,14.0,31,0.00,,,0.00,836.000000,,2013-06-27 22:42:00,
2013-06-27 17:03:00,85.0,51.0,-100.00,South,188,7.0,14.0,31,0.00,,,0.00,836.000000,,2013-06-27 23:03:00,
2013-06-27 17:15:00,85.0,51.0,-100.00,South,188,7.0,14.0,31,0.00,,,0.00,836.000000,,2013-06-27 23:15:00,
2013-06-27 17:24:00,85.0,51.0,-100.00,South,188,7.0,14.0,31,0.00,,,0.00,836.000000,,2013-06-27 23:24:00,
2013-06-27 17:33:00,85.0,51.0,-100.00,South,188,7.0,14.0,31,0.00,,,0.00,836.000000,,2013-06-27 23:33:00,
2013-06-27 17:42:00,86.0,50.0,-100.00,SSW,195,7.0,14.0,29,0.00,,,-99.99,714.000000,,2013-06-27 23:42:00,
2013-06-27 18:13:00,86.0,50.0,-100.00,SSW,195,7.0,14.0,29,0.00,,,-99.99,714.000000,,2013-06-28 00:13:00,
2013-06-27 18:25:00,86.0,50.0,-100.00,SSW,195,7.0,14.0,29,0.00,,,-99.99,714.000000,,2013-06-28 00:25:00,
2013-06-27 18:34:00,86.0,50.0,-100.00,SSW,195,7.0,14.0,29,0.00,,,-99.99,714.000000,,2013-06-28 00:34:00,
2013-06-27 19:13:00,86.0,49.0,-100.00,South,178,9.0,17.0,28,0.00,,,0.00,563.000000,,2013-06-28 01:13:00,
2013-06-27 19:23:00,86.0,49.0,-100.00,South,178,9.0,17.0,28,0.00,,,0.00,563.000000,,2013-06-28 01:23:00,
2013-06-27 19:34:00,86.0,49.0,-100.00,South,178,9.0,17.0,28,0.00,,,0.00,563.000000,,2013-06-28 01:34:00,
2013-06-27 19:42:00,85.0,48.0,-100.00,SSW,199,4.0,11.0,28,0.00,,,0.00,374.000000,,2013-06-28 01:42:00,
2013-06-27 20:14:00,85.0,48.0,-100.00,SSW,199,4.0,11.0,28,0.00,,,0.00,374.000000,,2013-06-28 02:14:00,
2013-06-27 20:35:00,85.0,48.0,-100.00,SSW,199,4.0,11.0,28,0.00,,,0.00,374.000000,,2013-06-28 02:35:00,
2013-06-27 21:35:00,81.0,47.0,-100.00,NNE,17,2.0,5.0,30,0.00,,,0.00,40.000000,,2013-06-28 03:35:00,
2013-06-27 21:42:00,77.0,47.0,-100.00,NE,40,6.0,10.0,35,0.00,,,0.00,49.000000,,2013-06-28 03:42:00,
2013-06-27 22:33:00,77.0,47.0,-100.00,NE,40,6.0,10.0,35,0.00,,,0.00,49.000000,,2013-06-28 04:33:00,
2013-06-27 22:42:00,76.0,47.0,-100.00,North,9,2.0,11.0,36,0.00,,,0.00,1.000000,,2013-06-28 04:42:00,
2013-06-27 23:11:00,76.0,47.0,-100.00,North,9,2.0,11.0,36,0.00,,,0.00,1.000000,,2013-06-28 05:11:00,
2013-06-27 23:22:00,76.0,47.0,-100.00,North,9,2.0,11.0,36,0.00,,,0.00,1.000000,,2013-06-28 05:22:00,
2013-06-27 23:33:00,76.0,47.0,-100.00,North,9,2.0,11.0,36,0.00,,,0.00,1.000000,,2013-06-28 05:33:00,
2013-06-27 23:42:00,74.0,47.0,-100.00,NNE,33,5.0,11.0,39,-99.99,,,0.00,0.000000,,2013-06-28 05:42:00,